createdAt,value
2022-12-19T00:01:38.247Z,70.13
2022-12-19T00:04:09.994Z,93.82
2022-12-19T00:06:43.907Z,83.78
2022-12-19T00:09:13.049Z,89.73
2022-12-19T00:11:40.320Z,78.07
2022-12-19T00:14:09.373Z,65.65
2022-12-19T00:16:36.384Z,74.95
2022-12-19T00:19:03.921Z,104.13
2022-12-19T00:21:34.849Z,97.13
2022-12-19T00:24:09.816Z,81.43
2022-12-19T00:26:48.398Z,63.17
2022-12-19T00:29:15.630Z,79.57
2022-12-19T00:31:43.439Z,80.65
2022-12-19T00:34:10.774Z,94.20
2022-12-19T00:36:39.901Z,82.88
2022-12-19T00:39:08.591Z,76.15
2022-12-19T00:41:37.607Z,108.00
2022-12-19T00:44:14.297Z,73.55
2022-12-19T00:46:41.601Z,60.60
2022-12-19T00:49:08.790Z,67.10
2022-12-19T00:51:37.310Z,74.93
2022-12-19T00:54:06.663Z,80.50
2022-12-19T00:56:37.519Z,118.85
2022-12-19T00:59:07.371Z,109.73
2022-12-19T01:01:37.270Z,122.88
2022-12-19T01:06:54.301Z,102.68
2022-12-19T01:09:25.280Z,79.40
2022-12-19T01:12:10.676Z,120.10
2022-12-19T01:14:38.006Z,95.38
2022-12-19T01:17:04.825Z,122.18
2022-12-19T01:19:31.977Z,87.15
2022-12-19T01:21:58.784Z,113.53
2022-12-19T01:24:26.124Z,115.37
2022-12-19T01:26:52.916Z,112.30
2022-12-19T01:29:20.049Z,92.40
2022-12-19T01:31:48.067Z,107.95
2022-12-19T01:34:15.237Z,89.95
2022-12-19T01:36:42.084Z,78.63
2022-12-19T01:39:09.231Z,108.97
2022-12-19T01:41:37.703Z,105.07
2022-12-19T01:44:07.865Z,114.50
2022-12-19T01:46:54.207Z,115.85
2022-12-19T01:49:28.165Z,128.20
2022-12-19T01:51:58.681Z,120.18
2022-12-19T01:54:31.745Z,126.97
2022-12-19T01:57:00.350Z,120.05
2022-12-19T01:59:32.212Z,112.18
2022-12-19T02:02:08.041Z,106.87
2022-12-19T02:04:35.696Z,130.93
2022-12-19T02:07:11.616Z,101.35
2022-12-19T02:09:52.963Z,110.28
2022-12-19T02:12:33.006Z,78.68
2022-12-19T02:15:03.179Z,77.83
2022-12-19T02:17:40.035Z,75.78
2022-12-19T02:20:19.273Z,73.10
2022-12-19T02:23:08.083Z,112.55
2022-12-19T02:25:37.668Z,121.00
2022-12-19T02:28:30.109Z,112.47
2022-12-19T02:31:19.781Z,95.85
2022-12-19T02:34:11.148Z,87.95
2022-12-19T02:36:53.146Z,143.98
2022-12-19T02:39:35.809Z,191.63
2022-12-19T02:42:05.595Z,165.47
2022-12-19T02:44:37.815Z,140.80
2022-12-19T02:47:07.099Z,121.40
2022-12-19T02:49:38.511Z,123.97
2022-12-19T02:52:09.987Z,142.57
2022-12-19T02:54:38.237Z,97.47
2022-12-19T02:57:44.988Z,76.63
2022-12-19T03:00:22.964Z,78.25
2022-12-19T03:03:00.513Z,69.03
2022-12-19T03:06:10.160Z,77.82
2022-12-19T03:09:01.706Z,57.83
2022-12-19T03:11:34.579Z,72.55
2022-12-19T03:14:17.522Z,101.65
2022-12-19T03:16:44.876Z,117.45
2022-12-19T03:19:14.337Z,90.50
2022-12-19T03:21:47.594Z,84.37
2022-12-19T03:24:16.688Z,111.65
2022-12-19T03:27:05.574Z,97.93
2022-12-19T03:29:36.101Z,118.05
2022-12-19T03:32:07.349Z,105.63
2022-12-19T03:34:51.896Z,97.13
2022-12-19T03:37:22.190Z,71.78
2022-12-19T03:39:54.303Z,77.55
2022-12-19T03:42:43.829Z,85.05
2022-12-19T03:45:13.464Z,73.82
2022-12-19T03:47:51.695Z,94.80
2022-12-19T03:50:19.178Z,89.97
2022-12-19T03:52:53.509Z,102.97
2022-12-19T03:55:32.052Z,81.88
2022-12-19T03:58:17.162Z,88.13
2022-12-19T04:00:47.496Z,92.50
2022-12-19T04:03:17.666Z,92.93
2022-12-19T04:05:46.939Z,128.93
2022-12-19T04:08:14.785Z,153.45
2022-12-19T04:10:48.465Z,171.45
2022-12-19T04:13:19.586Z,168.83
2022-12-19T04:15:55.831Z,114.28
2022-12-19T04:18:23.162Z,111.75
2022-12-19T04:20:58.093Z,108.05
2022-12-19T04:23:32.588Z,96.25
2022-12-19T04:26:03.201Z,109.33
2022-12-19T04:28:37.610Z,89.60
2022-12-19T04:31:06.682Z,118.88
2022-12-19T04:33:33.594Z,110.50
2022-12-19T04:36:00.838Z,129.60
2022-12-19T04:38:27.885Z,114.97
2022-12-19T04:40:54.995Z,98.95
2022-12-19T04:43:21.820Z,124.18
2022-12-19T04:45:52.701Z,125.13
2022-12-19T04:48:22.500Z,118.07
2022-12-19T04:50:49.614Z,163.93
2022-12-19T04:53:16.417Z,164.05
2022-12-19T04:55:44.333Z,149.45
2022-12-19T04:58:11.794Z,174.45
2022-12-19T05:00:39.054Z,152.73
2022-12-19T05:03:06.103Z,96.33
2022-12-19T05:05:33.390Z,145.50
2022-12-19T05:08:00.180Z,115.72
2022-12-19T05:10:27.288Z,100.30
2022-12-19T05:12:54.748Z,105.55
2022-12-19T05:15:22.003Z,93.13
2022-12-19T05:17:48.805Z,85.55
2022-12-19T05:20:15.989Z,146.25
2022-12-19T05:22:42.790Z,118.00
2022-12-19T05:25:10.288Z,106.88
2022-12-19T05:27:37.124Z,97.67
2022-12-19T05:30:04.743Z,84.82
2022-12-19T05:32:32.359Z,134.13
2022-12-19T05:34:59.508Z,129.90
2022-12-19T05:37:26.631Z,129.32
2022-12-19T05:39:53.904Z,144.20
2022-12-19T05:42:20.904Z,152.88
2022-12-19T05:44:48.263Z,144.88
2022-12-19T05:47:15.072Z,141.45
2022-12-19T05:49:42.218Z,135.88
2022-12-19T05:52:09.231Z,122.17
2022-12-19T05:54:36.356Z,95.15
2022-12-19T05:57:03.120Z,130.40
2022-12-19T05:59:30.238Z,130.13
2022-12-19T06:01:57.102Z,129.98
2022-12-19T06:04:24.825Z,122.07
2022-12-19T06:06:51.665Z,118.72
2022-12-19T06:09:19.138Z,135.48
2022-12-19T06:11:46.143Z,99.35
2022-12-19T06:14:13.521Z,129.82
2022-12-19T06:16:40.652Z,114.47
2022-12-19T06:19:07.801Z,116.93
2022-12-19T06:21:34.670Z,85.22
2022-12-19T06:24:01.786Z,73.07
2022-12-19T06:26:28.773Z,70.95
2022-12-19T06:28:56.133Z,77.90
2022-12-19T06:31:25.058Z,61.58
2022-12-19T06:33:52.611Z,98.75
2022-12-19T06:36:27.822Z,114.50
2022-12-19T06:38:57.969Z,86.28
2022-12-19T06:41:43.580Z,74.03
2022-12-19T06:44:13.302Z,86.90
2022-12-19T06:46:41.257Z,117.47
2022-12-19T06:49:10.334Z,103.82
2022-12-19T06:51:37.432Z,83.38
2022-12-19T06:54:05.021Z,85.07
2022-12-19T06:56:39.950Z,92.93
2022-12-19T06:59:07.992Z,84.97
2022-12-19T07:02:04.194Z,73.68
2022-12-19T07:04:35.876Z,73.72
2022-12-19T07:07:02.938Z,61.03
2022-12-19T07:09:31.027Z,99.70
2022-12-19T07:11:58.182Z,83.15
2022-12-19T07:14:25.376Z,94.40
2022-12-19T07:16:53.881Z,79.28
2022-12-19T07:19:22.732Z,91.80
2022-12-19T07:21:49.600Z,119.53
2022-12-19T07:24:16.958Z,103.22
2022-12-19T07:26:44.650Z,122.20
2022-12-19T07:29:12.274Z,109.53
2022-12-19T07:31:39.278Z,100.67
2022-12-19T07:34:06.402Z,83.38
2022-12-19T07:36:33.414Z,66.57
2022-12-19T07:39:01.389Z,63.72
2022-12-19T07:41:28.623Z,67.88
2022-12-19T07:43:55.766Z,61.93
2022-12-19T07:46:22.972Z,78.07
2022-12-19T07:48:50.799Z,72.57
2022-12-19T07:51:17.680Z,61.58
2022-12-19T07:53:44.826Z,88.40
2022-12-19T07:56:11.612Z,73.17
2022-12-19T07:58:38.764Z,69.90
2022-12-19T08:01:06.520Z,62.08
2022-12-19T08:03:36.067Z,84.88
2022-12-19T08:06:05.055Z,64.78
2022-12-19T08:08:33.060Z,68.07
2022-12-19T08:11:18.138Z,67.25
2022-12-19T08:13:47.033Z,56.95
2022-12-19T08:16:15.074Z,69.25
2022-12-19T08:18:42.413Z,79.07
2022-12-19T08:21:10.312Z,76.30
2022-12-19T08:23:41.367Z,94.45
2022-12-19T08:26:11.839Z,98.88
2022-12-19T08:28:39.320Z,116.55
2022-12-19T08:31:08.824Z,121.15
2022-12-19T08:33:36.801Z,107.53
2022-12-19T08:36:08.243Z,103.10
2022-12-19T08:38:36.125Z,135.57
2022-12-19T08:41:03.652Z,130.82
2022-12-19T08:43:30.806Z,99.57
2022-12-19T08:45:57.851Z,68.70
2022-12-19T08:48:25.611Z,62.30
2022-12-19T08:50:54.608Z,73.75
2022-12-19T08:53:26.220Z,90.78
2022-12-19T08:56:08.752Z,113.22
2022-12-19T08:58:35.968Z,89.17
2022-12-19T09:01:09.212Z,78.75
2022-12-19T09:03:52.726Z,83.72
2022-12-19T09:06:24.185Z,91.32
2022-12-19T09:08:51.590Z,87.95
2022-12-19T09:11:21.123Z,102.87
2022-12-19T09:13:49.105Z,95.40
2022-12-19T09:16:23.869Z,82.13
2022-12-19T09:18:53.396Z,80.88
2022-12-19T09:21:22.764Z,72.35
2022-12-19T09:23:53.730Z,74.73
2022-12-19T09:26:22.037Z,66.30
2022-12-19T09:28:50.997Z,66.10
2022-12-19T09:31:21.461Z,70.43
2022-12-19T09:33:48.756Z,69.22
2022-12-19T09:36:21.441Z,68.13
2022-12-19T09:38:49.460Z,66.97
2022-12-19T09:42:13.506Z,59.95
2022-12-19T09:44:56.813Z,49.53
2022-12-19T09:47:27.261Z,54.83
2022-12-19T09:49:54.690Z,58.93
2022-12-19T09:52:38.526Z,59.63
2022-12-19T09:55:18.823Z,63.70
2022-12-19T09:58:05.994Z,63.58
2022-12-19T10:00:58.624Z,56.25
2022-12-19T10:03:40.505Z,56.67
2022-12-19T10:07:18.442Z,58.63
2022-12-19T10:11:56.373Z,48.60
2022-12-19T10:12:45.532Z,45.42
2022-12-19T10:15:19.492Z,43.63
2022-12-19T10:18:24.721Z,48.78
2022-12-19T10:21:06.059Z,63.77
2022-12-19T10:24:12.626Z,72.63
2022-12-19T10:26:48.304Z,76.70
2022-12-19T10:29:46.609Z,81.45
2022-12-19T10:32:13.417Z,77.40
2022-12-19T10:34:43.394Z,79.05
2022-12-19T10:37:26.651Z,66.47
2022-12-19T10:40:05.432Z,72.40
2022-12-19T10:42:52.688Z,65.03
2022-12-19T10:45:21.641Z,75.35
2022-12-19T10:47:51.601Z,84.13
2022-12-19T10:50:25.761Z,85.50
2022-12-19T10:52:54.681Z,77.40
2022-12-19T10:55:30.057Z,79.70
2022-12-19T10:58:10.790Z,77.97
2022-12-19T11:00:39.239Z,67.35
2022-12-19T11:03:18.859Z,64.20
2022-12-19T11:05:57.854Z,77.65
2022-12-19T11:08:37.207Z,85.47
2022-12-19T11:14:50.016Z,70.55
2022-12-19T11:18:37.784Z,69.18
2022-12-19T11:24:46.172Z,75.70
2022-12-19T11:29:19.403Z,64.35
2022-12-19T11:29:40.284Z,71.27
2022-12-19T11:30:41.368Z,72.50
2022-12-19T11:30:43.545Z,69.05
2022-12-19T11:34:16.417Z,70.20
2022-12-19T11:36:58.604Z,64.00
2022-12-19T11:39:44.598Z,65.97
2022-12-19T11:42:31.032Z,60.17
2022-12-19T11:45:07.313Z,77.75
2022-12-19T11:47:42.129Z,76.70
2022-12-19T11:50:37.238Z,78.57
2022-12-19T11:53:16.798Z,79.20
2022-12-19T11:55:54.723Z,76.70
2022-12-19T11:58:23.932Z,77.18
2022-12-19T12:01:29.973Z,75.75
2022-12-19T12:04:15.663Z,80.00
2022-12-19T12:06:52.378Z,88.60
2022-12-19T12:13:15.021Z,76.70
2022-12-19T12:18:05.709Z,72.93
2022-12-19T12:28:08.812Z,70.97
2022-12-19T12:31:00.611Z,70.17
2022-12-19T12:31:15.936Z,60.95
2022-12-19T12:31:41.319Z,58.30
2022-12-19T12:32:00.973Z,63.67
2022-12-19T12:37:10.926Z,64.03
2022-12-19T12:41:07.161Z,60.53
2022-12-19T12:44:03.937Z,57.80
2022-12-19T12:46:46.144Z,71.15
2022-12-19T12:49:30.709Z,70.38
2022-12-19T12:52:01.130Z,69.27
2022-12-19T12:54:34.361Z,58.25
2022-12-19T12:57:02.895Z,58.63
2022-12-19T12:59:31.174Z,51.65
2022-12-19T13:02:13.818Z,55.42
2022-12-19T13:04:53.978Z,128.50
2022-12-19T13:07:41.558Z,84.63
2022-12-19T13:10:31.052Z,72.25
2022-12-19T13:13:12.637Z,61.03
2022-12-19T13:15:46.103Z,65.60
2022-12-19T13:18:12.982Z,60.40
2022-12-19T13:20:48.359Z,58.72
2022-12-19T13:23:30.633Z,53.78
2022-12-19T13:25:57.808Z,53.15
2022-12-19T13:28:24.602Z,58.83
2022-12-19T13:31:18.539Z,58.50
2022-12-19T13:33:54.718Z,52.80
2022-12-19T13:39:49.937Z,57.97
2022-12-19T13:40:12.088Z,59.25
2022-12-19T13:43:12.319Z,61.70
2022-12-19T13:45:42.658Z,53.65
2022-12-19T13:48:19.220Z,46.60
2022-12-19T13:50:48.217Z,54.50
2022-12-19T13:53:19.225Z,50.63
2022-12-19T13:55:46.547Z,60.65
2022-12-19T13:58:43.202Z,97.93
2022-12-19T14:01:21.517Z,83.23
2022-12-19T14:03:51.574Z,82.22
2022-12-19T14:06:22.927Z,77.30
2022-12-19T14:09:25.197Z,76.55
2022-12-19T14:13:46.679Z,74.22
2022-12-19T14:15:02.704Z,81.17
2022-12-19T14:17:36.867Z,74.40
2022-12-19T14:22:11.901Z,68.47
2022-12-19T14:23:04.783Z,69.10
2022-12-19T14:27:08.307Z,68.18
2022-12-19T14:28:40.128Z,65.80
2022-12-19T14:31:13.615Z,60.75
2022-12-19T14:34:11.169Z,51.03
2022-12-19T14:36:37.768Z,47.97
2022-12-19T14:39:27.234Z,51.85
2022-12-19T14:42:13.142Z,53.07
2022-12-19T14:51:51.544Z,65.87
2022-12-19T14:54:09.042Z,66.50
2022-12-19T14:54:13.005Z,67.00
2022-12-19T14:54:55.127Z,91.75
2022-12-19T14:56:57.575Z,85.35
2022-12-19T14:59:05.839Z,76.57
2022-12-19T15:01:35.031Z,68.28
2022-12-19T15:04:51.294Z,64.63
2022-12-19T15:07:09.923Z,56.42
2022-12-19T15:11:03.852Z,50.90
2022-12-19T15:14:46.785Z,57.50
2022-12-19T15:15:59.834Z,48.63
2022-12-19T15:18:32.922Z,47.95
2022-12-19T15:21:02.557Z,49.20
2022-12-19T15:23:30.001Z,49.30
2022-12-19T15:26:06.128Z,48.13
2022-12-19T15:28:43.261Z,49.08
2022-12-19T15:31:24.378Z,48.55
2022-12-19T15:36:38.627Z,53.67
2022-12-19T15:39:05.628Z,64.00
2022-12-19T15:41:32.857Z,63.00
2022-12-19T15:44:05.577Z,52.45
2022-12-19T15:46:33.726Z,50.47
2022-12-19T15:49:01.211Z,58.75
2022-12-19T15:51:28.338Z,50.70
2022-12-19T15:54:09.112Z,57.45
2022-12-19T15:56:46.997Z,51.03
2022-12-19T15:59:22.867Z,53.47
2022-12-19T16:01:52.097Z,52.47
2022-12-19T16:04:19.437Z,44.37
2022-12-19T16:06:46.685Z,94.13
2022-12-19T16:09:32.486Z,66.30
2022-12-19T16:12:00.372Z,54.15
2022-12-19T16:14:28.496Z,49.08
2022-12-19T16:16:56.468Z,53.03
2022-12-19T16:19:25.119Z,52.33
2022-12-19T16:21:52.504Z,52.72
2022-12-19T16:24:19.515Z,53.78
2022-12-19T16:26:53.070Z,45.42
2022-12-19T16:29:28.912Z,48.50
2022-12-19T16:31:56.167Z,52.13
2022-12-19T16:34:24.479Z,44.75
2022-12-19T16:36:52.064Z,46.60
2022-12-19T16:39:18.915Z,47.05
2022-12-19T16:41:47.187Z,43.42
2022-12-19T16:44:23.081Z,52.07
2022-12-19T16:46:51.722Z,53.13
2022-12-19T16:49:24.274Z,46.20
2022-12-19T16:51:51.813Z,51.67
2022-12-19T16:54:20.128Z,83.82
2022-12-19T16:56:54.145Z,86.13
2022-12-19T16:59:32.799Z,76.90
2022-12-19T17:02:00.604Z,58.22
2022-12-19T17:04:29.143Z,49.00
2022-12-19T17:06:56.700Z,45.58
2022-12-19T17:09:24.902Z,48.65
2022-12-19T17:11:56.317Z,39.43
2022-12-19T17:14:27.160Z,45.25
2022-12-19T17:16:55.619Z,49.88
2022-12-19T17:19:32.579Z,48.08
2022-12-19T17:21:59.706Z,42.95
2022-12-19T17:24:26.585Z,43.20
2022-12-19T17:26:53.777Z,43.88
2022-12-19T17:29:20.598Z,47.10
2022-12-19T17:31:47.891Z,51.30
2022-12-19T17:34:25.863Z,56.13
2022-12-19T17:36:53.088Z,48.77
2022-12-19T17:39:25.705Z,56.30
2022-12-19T17:41:55.482Z,49.78
2022-12-19T17:44:22.319Z,39.90
2022-12-19T17:46:49.535Z,42.00
2022-12-19T17:49:27.609Z,44.53
2022-12-19T17:51:56.221Z,37.75
2022-12-19T17:54:23.735Z,48.25
2022-12-19T17:56:51.168Z,59.15
2022-12-19T17:59:18.235Z,50.33
2022-12-19T18:01:48.956Z,57.77
2022-12-19T18:04:18.685Z,47.45
2022-12-19T18:06:46.515Z,52.85
2022-12-19T18:09:24.802Z,63.55
2022-12-19T18:11:52.843Z,58.53
2022-12-19T18:14:20.511Z,102.57
2022-12-19T18:16:50.273Z,106.22
2022-12-19T18:19:19.700Z,112.88
2022-12-19T18:21:47.294Z,106.13
2022-12-19T18:24:17.833Z,116.03
2022-12-19T18:26:44.982Z,136.67
2022-12-19T18:29:12.171Z,115.60
2022-12-19T18:31:46.508Z,95.63
2022-12-19T18:34:20.667Z,75.32
2022-12-19T18:36:48.469Z,66.22
2022-12-19T18:39:25.578Z,68.47
2022-12-19T18:41:53.296Z,55.13
2022-12-19T18:44:20.511Z,46.78
2022-12-19T18:46:49.849Z,62.28
2022-12-19T18:49:17.542Z,59.53
2022-12-19T18:51:45.024Z,51.17
2022-12-19T18:54:17.485Z,54.47
2022-12-19T18:56:45.341Z,55.80
2022-12-19T18:59:12.571Z,51.65
2022-12-19T19:01:43.496Z,59.92
2022-12-19T19:04:13.257Z,54.77
2022-12-19T19:06:48.501Z,50.03
2022-12-19T19:09:18.888Z,41.60
2022-12-19T19:12:17.618Z,53.45
2022-12-19T19:14:44.612Z,45.40
2022-12-19T19:17:23.465Z,47.73
2022-12-19T19:19:50.295Z,53.40
2022-12-19T19:22:17.753Z,95.22
2022-12-19T19:24:44.547Z,92.22
2022-12-19T19:27:11.681Z,110.35
2022-12-19T19:29:39.006Z,117.17
2022-12-19T19:32:06.150Z,100.20
2022-12-19T19:34:36.248Z,96.50
2022-12-19T19:37:06.020Z,90.18
2022-12-19T19:39:34.693Z,94.93
2022-12-19T19:42:02.356Z,70.60
2022-12-19T19:44:33.023Z,53.03
2022-12-19T19:47:00.369Z,68.65
2022-12-19T19:49:27.304Z,91.70
2022-12-19T19:52:01.959Z,93.15
2022-12-19T19:54:29.865Z,69.17
2022-12-19T19:56:57.107Z,51.40
2022-12-19T19:59:23.962Z,79.68
2022-12-19T20:01:54.407Z,86.30
2022-12-19T20:04:21.596Z,75.72
2022-12-19T20:06:49.533Z,98.13
2022-12-19T20:09:16.316Z,81.28
2022-12-19T20:11:43.537Z,85.97
2022-12-19T20:14:10.644Z,95.93
2022-12-19T20:16:38.125Z,70.38
2022-12-19T20:19:05.239Z,88.87
2022-12-19T20:21:33.443Z,99.57
2022-12-19T20:24:00.377Z,102.78
2022-12-19T20:26:27.705Z,108.13
2022-12-19T20:28:54.564Z,88.43
2022-12-19T20:31:23.955Z,96.03
2022-12-19T20:33:53.170Z,83.35
2022-12-19T20:36:21.336Z,93.25
2022-12-19T20:38:48.502Z,93.65
2022-12-19T20:41:16.302Z,74.55
2022-12-19T20:43:43.281Z,54.83
2022-12-19T20:46:16.233Z,48.72
2022-12-19T20:48:43.829Z,44.90
2022-12-19T20:51:12.460Z,47.35
2022-12-19T20:53:41.348Z,47.40
2022-12-19T20:56:15.104Z,72.53
2022-12-19T20:58:42.664Z,40.38
2022-12-19T21:01:15.880Z,42.88
2022-12-19T21:03:45.236Z,50.78
2022-12-19T21:06:15.704Z,63.80
2022-12-19T21:08:43.153Z,86.10
2022-12-19T21:11:11.495Z,101.07
2022-12-19T21:13:39.549Z,102.40
2022-12-19T21:16:09.042Z,107.53
2022-12-19T21:18:37.666Z,122.43
2022-12-19T21:21:07.396Z,116.60
2022-12-19T21:23:34.423Z,100.40
2022-12-19T21:26:04.360Z,95.65
2022-12-19T21:28:32.079Z,76.88
2022-12-19T21:31:07.903Z,62.67
2022-12-19T21:33:34.800Z,51.37
2022-12-19T21:36:09.285Z,44.42
2022-12-19T21:38:36.346Z,43.67
2022-12-19T21:41:06.017Z,41.47
2022-12-19T21:43:36.799Z,51.78
2022-12-19T21:46:12.696Z,77.20
2022-12-19T21:48:42.056Z,114.85
2022-12-19T21:51:10.077Z,118.63
2022-12-19T21:53:38.886Z,115.78
2022-12-19T21:56:22.062Z,109.45
2022-12-19T21:58:50.740Z,85.90
2022-12-19T22:01:18.419Z,110.03
2022-12-19T22:03:45.622Z,68.93
2022-12-19T22:06:27.037Z,49.05
2022-12-19T22:08:55.073Z,50.60
2022-12-19T22:11:22.918Z,58.83
2022-12-19T22:13:50.260Z,55.17
2022-12-19T22:16:18.078Z,45.58
2022-12-19T22:18:45.414Z,48.75
2022-12-19T22:21:14.764Z,47.72
2022-12-19T22:23:41.897Z,43.73
2022-12-19T22:26:20.409Z,75.35
2022-12-19T22:28:50.131Z,84.95
2022-12-19T22:31:23.854Z,74.07
2022-12-19T22:33:53.929Z,95.93
2022-12-19T22:36:27.614Z,89.17
2022-12-19T22:38:55.819Z,73.30
2022-12-19T22:41:22.996Z,42.28
2022-12-19T22:43:50.083Z,50.20
2022-12-19T22:46:20.277Z,82.70
2022-12-19T22:48:48.314Z,49.73
2022-12-19T22:51:17.080Z,42.08
2022-12-19T22:53:44.379Z,46.35
2022-12-19T22:56:14.935Z,52.28
2022-12-19T22:58:43.698Z,47.75
2022-12-19T23:01:25.415Z,39.97
2022-12-19T23:03:55.629Z,40.35
2022-12-19T23:06:25.790Z,43.53
2022-12-19T23:08:53.145Z,65.15
2022-12-19T23:11:24.420Z,70.00
2022-12-19T23:13:51.664Z,71.40
2022-12-19T23:16:19.433Z,67.40
2022-12-19T23:18:46.547Z,67.85
2022-12-19T23:21:19.927Z,58.75
2022-12-19T23:23:49.630Z,72.97
2022-12-19T23:26:23.314Z,62.83
2022-12-19T23:29:16.575Z,50.75
2022-12-19T23:31:46.202Z,63.58
2022-12-19T23:34:13.837Z,52.75
2022-12-19T23:39:28.154Z,39.47
2022-12-19T23:41:56.024Z,43.92
2022-12-19T23:44:23.069Z,50.13
2022-12-19T23:46:50.248Z,65.70
2022-12-19T23:49:17.300Z,52.47
2022-12-19T23:51:46.706Z,67.63
2022-12-19T23:54:13.765Z,44.95
2022-12-19T23:56:40.883Z,36.72
2022-12-19T23:59:07.822Z,38.05
